sensor_id;sensor_type;location;lat;lon;timestamp;P1;durP1;ratioP1;P2;durP2;ratioP2
69989;SDS011;57331;52.054;5.294;2022-11-15T00:01:46;50.72;;;15.13;;
69989;SDS011;57331;52.054;5.294;2022-11-15T00:04:32;47.72;;;15.52;;
69989;SDS011;57331;52.054;5.294;2022-11-15T00:07:17;46.90;;;15.65;;
69989;SDS011;57331;52.054;5.294;2022-11-15T00:10:23;52.70;;;16.37;;
69989;SDS011;57331;52.054;5.294;2022-11-15T00:13:10;30.17;;;10.50;;
69989;SDS011;57331;52.054;5.294;2022-11-15T00:15:57;29.70;;;10.80;;
69989;SDS011;57331;52.054;5.294;2022-11-15T00:18:43;52.28;;;16.77;;
69989;SDS011;57331;52.054;5.294;2022-11-15T00:21:34;43.28;;;12.32;;
69989;SDS011;57331;52.054;5.294;2022-11-15T00:24:20;44.03;;;14.53;;
69989;SDS011;57331;52.054;5.294;2022-11-15T00:27:06;65.45;;;16.02;;
69989;SDS011;57331;52.054;5.294;2022-11-15T00:29:52;32.60;;;11.63;;
69989;SDS011;57331;52.054;5.294;2022-11-15T00:32:38;62.17;;;16.25;;
69989;SDS011;57331;52.054;5.294;2022-11-15T00:35:24;61.65;;;16.70;;
69989;SDS011;57331;52.054;5.294;2022-11-15T00:38:10;19.83;;;8.37;;
69989;SDS011;57331;52.054;5.294;2022-11-15T00:40:55;48.28;;;15.10;;
69989;SDS011;57331;52.054;5.294;2022-11-15T00:43:41;53.50;;;16.60;;
69989;SDS011;57331;52.054;5.294;2022-11-15T00:46:28;58.35;;;17.20;;
69989;SDS011;57331;52.054;5.294;2022-11-15T00:49:14;46.05;;;14.02;;
69989;SDS011;57331;52.054;5.294;2022-11-15T00:51:59;54.67;;;15.63;;
69989;SDS011;57331;52.054;5.294;2022-11-15T00:54:46;51.08;;;15.43;;
69989;SDS011;57331;52.054;5.294;2022-11-15T00:57:31;45.90;;;15.73;;
69989;SDS011;57331;52.054;5.294;2022-11-15T01:00:17;48.70;;;16.17;;
69989;SDS011;57331;52.054;5.294;2022-11-15T01:03:03;37.63;;;13.20;;
69989;SDS011;57331;52.054;5.294;2022-11-15T01:05:49;47.60;;;15.20;;
69989;SDS011;57331;52.054;5.294;2022-11-15T01:08:35;61.08;;;18.20;;
69989;SDS011;57331;52.054;5.294;2022-11-15T01:11:21;55.00;;;17.83;;
69989;SDS011;57331;52.054;5.294;2022-11-15T01:14:07;45.20;;;15.45;;
69989;SDS011;57331;52.054;5.294;2022-11-15T01:16:53;46.78;;;16.77;;
69989;SDS011;57331;52.054;5.294;2022-11-15T01:19:39;55.93;;;17.93;;
69989;SDS011;57331;52.054;5.294;2022-11-15T01:22:25;53.22;;;15.70;;
69989;SDS011;57331;52.054;5.294;2022-11-15T01:25:11;54.22;;;19.23;;
69989;SDS011;57331;52.054;5.294;2022-11-15T01:27:57;44.53;;;16.00;;
69989;SDS011;57331;52.054;5.294;2022-11-15T01:30:43;52.13;;;16.45;;
69989;SDS011;57331;52.054;5.294;2022-11-15T01:33:29;38.43;;;14.17;;
69989;SDS011;57331;52.054;5.294;2022-11-15T01:36:16;53.47;;;16.73;;
69989;SDS011;57331;52.054;5.294;2022-11-15T01:39:03;42.55;;;14.50;;
69989;SDS011;57331;52.054;5.294;2022-11-15T01:41:49;50.80;;;16.23;;
69989;SDS011;57331;52.054;5.294;2022-11-15T01:44:49;59.85;;;18.42;;
69989;SDS011;57331;52.054;5.294;2022-11-15T01:47:36;55.30;;;16.77;;
69989;SDS011;57331;52.054;5.294;2022-11-15T01:50:26;60.92;;;19.83;;
69989;SDS011;57331;52.054;5.294;2022-11-15T01:53:16;64.07;;;17.27;;
69989;SDS011;57331;52.054;5.294;2022-11-15T01:56:04;60.80;;;18.30;;
69989;SDS011;57331;52.054;5.294;2022-11-15T01:58:52;48.83;;;15.95;;
69989;SDS011;57331;52.054;5.294;2022-11-15T02:01:40;44.33;;;16.57;;
69989;SDS011;57331;52.054;5.294;2022-11-15T02:04:27;54.92;;;17.77;;
69989;SDS011;57331;52.054;5.294;2022-11-15T02:07:16;38.88;;;11.10;;
69989;SDS011;57331;52.054;5.294;2022-11-15T02:10:09;56.97;;;18.15;;
69989;SDS011;57331;52.054;5.294;2022-11-15T02:12:57;59.63;;;17.73;;
69989;SDS011;57331;52.054;5.294;2022-11-15T02:22:27;45.03;;;16.58;;
69989;SDS011;57331;52.054;5.294;2022-11-15T02:28:16;45.28;;;16.13;;
69989;SDS011;57331;52.054;5.294;2022-11-15T02:31:45;40.10;;;15.33;;
69989;SDS011;57331;52.054;5.294;2022-11-15T02:34:43;48.75;;;17.05;;
69989;SDS011;57331;52.054;5.294;2022-11-15T02:38:16;50.28;;;18.10;;
69989;SDS011;57331;52.054;5.294;2022-11-15T02:40:48;54.05;;;18.65;;
69989;SDS011;57331;52.054;5.294;2022-11-15T02:46:57;47.87;;;18.03;;
69989;SDS011;57331;52.054;5.294;2022-11-15T02:49:58;50.38;;;18.27;;
69989;SDS011;57331;52.054;5.294;2022-11-15T02:52:53;43.92;;;16.85;;
69989;SDS011;57331;52.054;5.294;2022-11-15T02:55:41;48.67;;;18.15;;
69989;SDS011;57331;52.054;5.294;2022-11-15T02:58:39;49.08;;;17.08;;
69989;SDS011;57331;52.054;5.294;2022-11-15T03:20:15;43.25;;;17.25;;
69989;SDS011;57331;52.054;5.294;2022-11-15T03:23:04;42.42;;;15.13;;
69989;SDS011;57331;52.054;5.294;2022-11-15T03:25:53;40.17;;;16.70;;
69989;SDS011;57331;52.054;5.294;2022-11-15T03:28:42;41.67;;;16.30;;
69989;SDS011;57331;52.054;5.294;2022-11-15T03:31:36;40.83;;;16.40;;
69989;SDS011;57331;52.054;5.294;2022-11-15T03:37:22;42.78;;;17.13;;
69989;SDS011;57331;52.054;5.294;2022-11-15T03:40:10;41.38;;;16.38;;
69989;SDS011;57331;52.054;5.294;2022-11-15T03:43:02;43.72;;;16.50;;
69989;SDS011;57331;52.054;5.294;2022-11-15T03:46:32;40.43;;;16.67;;
69989;SDS011;57331;52.054;5.294;2022-11-15T03:49:29;41.15;;;17.55;;
69989;SDS011;57331;52.054;5.294;2022-11-15T03:52:19;43.40;;;17.08;;
69989;SDS011;57331;52.054;5.294;2022-11-15T03:55:06;38.45;;;15.68;;
69989;SDS011;57331;52.054;5.294;2022-11-15T03:57:54;41.08;;;16.30;;
69989;SDS011;57331;52.054;5.294;2022-11-15T04:00:43;50.83;;;17.27;;
69989;SDS011;57331;52.054;5.294;2022-11-15T04:03:29;40.00;;;16.75;;
69989;SDS011;57331;52.054;5.294;2022-11-15T04:06:15;41.80;;;16.95;;
69989;SDS011;57331;52.054;5.294;2022-11-15T04:09:01;37.42;;;16.60;;
69989;SDS011;57331;52.054;5.294;2022-11-15T04:11:47;41.72;;;16.92;;
69989;SDS011;57331;52.054;5.294;2022-11-15T04:14:33;51.83;;;16.53;;
69989;SDS011;57331;52.054;5.294;2022-11-15T04:17:19;37.17;;;14.68;;
69989;SDS011;57331;52.054;5.294;2022-11-15T04:20:05;41.50;;;17.23;;
69989;SDS011;57331;52.054;5.294;2022-11-15T04:26:38;43.40;;;17.35;;
69989;SDS011;57331;52.054;5.294;2022-11-15T04:29:24;41.93;;;15.23;;
69989;SDS011;57331;52.054;5.294;2022-11-15T04:32:18;38.60;;;15.77;;
69989;SDS011;57331;52.054;5.294;2022-11-15T04:35:04;44.83;;;17.92;;
69989;SDS011;57331;52.054;5.294;2022-11-15T04:37:50;48.55;;;17.52;;
69989;SDS011;57331;52.054;5.294;2022-11-15T04:40:36;46.92;;;18.40;;
69989;SDS011;57331;52.054;5.294;2022-11-15T04:43:22;38.73;;;16.33;;
69989;SDS011;57331;52.054;5.294;2022-11-15T04:46:08;32.88;;;14.82;;
69989;SDS011;57331;52.054;5.294;2022-11-15T04:48:53;42.50;;;16.38;;
69989;SDS011;57331;52.054;5.294;2022-11-15T04:51:43;45.50;;;16.70;;
69989;SDS011;57331;52.054;5.294;2022-11-15T04:54:28;45.13;;;16.77;;
69989;SDS011;57331;52.054;5.294;2022-11-15T04:57:15;41.33;;;15.47;;
69989;SDS011;57331;52.054;5.294;2022-11-15T05:00:02;35.65;;;14.63;;
69989;SDS011;57331;52.054;5.294;2022-11-15T05:02:49;33.90;;;15.52;;
69989;SDS011;57331;52.054;5.294;2022-11-15T05:05:54;33.60;;;15.07;;
69989;SDS011;57331;52.054;5.294;2022-11-15T05:08:39;38.40;;;15.25;;
69989;SDS011;57331;52.054;5.294;2022-11-15T05:11:25;34.33;;;15.27;;
69989;SDS011;57331;52.054;5.294;2022-11-15T05:14:12;36.03;;;15.15;;
69989;SDS011;57331;52.054;5.294;2022-11-15T05:16:58;30.88;;;14.07;;
69989;SDS011;57331;52.054;5.294;2022-11-15T05:19:44;40.42;;;16.50;;
69989;SDS011;57331;52.054;5.294;2022-11-15T05:22:30;45.60;;;15.65;;
69989;SDS011;57331;52.054;5.294;2022-11-15T05:25:16;41.37;;;15.17;;
69989;SDS011;57331;52.054;5.294;2022-11-15T05:28:02;28.73;;;12.13;;
69989;SDS011;57331;52.054;5.294;2022-11-15T05:30:48;38.45;;;14.73;;
69989;SDS011;57331;52.054;5.294;2022-11-15T05:33:33;36.28;;;15.43;;
69989;SDS011;57331;52.054;5.294;2022-11-15T05:39:35;33.10;;;14.50;;
69989;SDS011;57331;52.054;5.294;2022-11-15T05:42:20;38.53;;;15.38;;
69989;SDS011;57331;52.054;5.294;2022-11-15T05:45:06;34.90;;;16.15;;
69989;SDS011;57331;52.054;5.294;2022-11-15T05:47:54;39.70;;;16.20;;
69989;SDS011;57331;52.054;5.294;2022-11-15T05:50:41;35.38;;;15.50;;
69989;SDS011;57331;52.054;5.294;2022-11-15T05:53:30;37.60;;;15.03;;
69989;SDS011;57331;52.054;5.294;2022-11-15T05:56:16;41.50;;;16.10;;
69989;SDS011;57331;52.054;5.294;2022-11-15T05:59:02;35.67;;;16.13;;
69989;SDS011;57331;52.054;5.294;2022-11-15T06:01:48;37.22;;;14.07;;
69989;SDS011;57331;52.054;5.294;2022-11-15T06:04:34;38.22;;;16.30;;
69989;SDS011;57331;52.054;5.294;2022-11-15T06:07:20;33.70;;;14.60;;
69989;SDS011;57331;52.054;5.294;2022-11-15T06:10:06;35.70;;;15.00;;
69989;SDS011;57331;52.054;5.294;2022-11-15T06:12:59;41.10;;;17.77;;
69989;SDS011;57331;52.054;5.294;2022-11-15T06:15:45;38.47;;;16.45;;
69989;SDS011;57331;52.054;5.294;2022-11-15T06:18:32;31.13;;;14.40;;
69989;SDS011;57331;52.054;5.294;2022-11-15T06:21:18;32.93;;;13.67;;
69989;SDS011;57331;52.054;5.294;2022-11-15T06:24:04;36.30;;;16.15;;
69989;SDS011;57331;52.054;5.294;2022-11-15T06:26:50;37.30;;;15.25;;
69989;SDS011;57331;52.054;5.294;2022-11-15T06:29:36;37.08;;;17.67;;
69989;SDS011;57331;52.054;5.294;2022-11-15T06:32:22;48.67;;;16.85;;
69989;SDS011;57331;52.054;5.294;2022-11-15T06:35:08;42.87;;;16.50;;
69989;SDS011;57331;52.054;5.294;2022-11-15T06:37:54;45.65;;;15.40;;
69989;SDS011;57331;52.054;5.294;2022-11-15T06:40:40;41.88;;;16.83;;
69989;SDS011;57331;52.054;5.294;2022-11-15T06:43:26;43.03;;;17.02;;
69989;SDS011;57331;52.054;5.294;2022-11-15T06:46:11;38.28;;;16.58;;
69989;SDS011;57331;52.054;5.294;2022-11-15T06:48:57;35.37;;;15.43;;
69989;SDS011;57331;52.054;5.294;2022-11-15T06:51:43;40.47;;;14.35;;
69989;SDS011;57331;52.054;5.294;2022-11-15T06:54:29;37.53;;;16.05;;
69989;SDS011;57331;52.054;5.294;2022-11-15T06:57:15;40.97;;;16.17;;
69989;SDS011;57331;52.054;5.294;2022-11-15T07:00:03;44.00;;;18.35;;
69989;SDS011;57331;52.054;5.294;2022-11-15T07:02:49;35.87;;;15.03;;
69989;SDS011;57331;52.054;5.294;2022-11-15T07:05:36;32.70;;;15.23;;
69989;SDS011;57331;52.054;5.294;2022-11-15T07:08:22;37.55;;;14.00;;
69989;SDS011;57331;52.054;5.294;2022-11-15T07:11:08;33.83;;;13.18;;
69989;SDS011;57331;52.054;5.294;2022-11-15T07:13:54;33.55;;;15.55;;
69989;SDS011;57331;52.054;5.294;2022-11-15T07:16:40;32.67;;;14.63;;
69989;SDS011;57331;52.054;5.294;2022-11-15T07:19:26;33.60;;;14.70;;
69989;SDS011;57331;52.054;5.294;2022-11-15T07:22:12;38.30;;;15.27;;
69989;SDS011;57331;52.054;5.294;2022-11-15T07:24:58;40.47;;;15.07;;
69989;SDS011;57331;52.054;5.294;2022-11-15T07:27:44;33.00;;;14.68;;
69989;SDS011;57331;52.054;5.294;2022-11-15T07:30:42;38.40;;;14.70;;
69989;SDS011;57331;52.054;5.294;2022-11-15T07:33:29;28.55;;;11.32;;
69989;SDS011;57331;52.054;5.294;2022-11-15T07:36:16;31.88;;;13.82;;
69989;SDS011;57331;52.054;5.294;2022-11-15T07:39:01;28.20;;;12.43;;
69989;SDS011;57331;52.054;5.294;2022-11-15T07:41:47;29.42;;;12.85;;
69989;SDS011;57331;52.054;5.294;2022-11-15T07:44:34;27.77;;;12.70;;
69989;SDS011;57331;52.054;5.294;2022-11-15T07:47:20;27.83;;;12.88;;
69989;SDS011;57331;52.054;5.294;2022-11-15T07:50:06;33.55;;;13.32;;
69989;SDS011;57331;52.054;5.294;2022-11-15T07:52:55;26.60;;;11.65;;
69989;SDS011;57331;52.054;5.294;2022-11-15T07:55:41;37.40;;;13.32;;
69989;SDS011;57331;52.054;5.294;2022-11-15T07:58:28;30.70;;;12.67;;
69989;SDS011;57331;52.054;5.294;2022-11-15T08:01:14;29.10;;;12.30;;
69989;SDS011;57331;52.054;5.294;2022-11-15T08:04:00;27.48;;;12.82;;
69989;SDS011;57331;52.054;5.294;2022-11-15T08:06:46;29.40;;;12.35;;
69989;SDS011;57331;52.054;5.294;2022-11-15T08:09:32;31.67;;;13.77;;
69989;SDS011;57331;52.054;5.294;2022-11-15T08:12:18;24.03;;;11.47;;
69989;SDS011;57331;52.054;5.294;2022-11-15T08:15:04;35.10;;;14.25;;
69989;SDS011;57331;52.054;5.294;2022-11-15T08:17:54;27.13;;;11.25;;
69989;SDS011;57331;52.054;5.294;2022-11-15T08:20:44;29.17;;;12.65;;
69989;SDS011;57331;52.054;5.294;2022-11-15T08:23:30;30.05;;;12.43;;
69989;SDS011;57331;52.054;5.294;2022-11-15T08:26:17;24.43;;;10.67;;
69989;SDS011;57331;52.054;5.294;2022-11-15T08:29:03;20.95;;;10.07;;
69989;SDS011;57331;52.054;5.294;2022-11-15T08:31:49;30.52;;;10.15;;
69989;SDS011;57331;52.054;5.294;2022-11-15T08:34:34;19.48;;;9.57;;
69989;SDS011;57331;52.054;5.294;2022-11-15T08:37:20;27.17;;;11.20;;
69989;SDS011;57331;52.054;5.294;2022-11-15T08:40:06;26.40;;;11.37;;
69989;SDS011;57331;52.054;5.294;2022-11-15T08:42:52;25.25;;;10.77;;
69989;SDS011;57331;52.054;5.294;2022-11-15T08:45:38;22.98;;;9.55;;
69989;SDS011;57331;52.054;5.294;2022-11-15T08:48:24;21.98;;;9.88;;
69989;SDS011;57331;52.054;5.294;2022-11-15T08:51:10;24.90;;;10.45;;
69989;SDS011;57331;52.054;5.294;2022-11-15T08:53:56;22.53;;;9.10;;
69989;SDS011;57331;52.054;5.294;2022-11-15T08:56:42;22.70;;;9.48;;
69989;SDS011;57331;52.054;5.294;2022-11-15T08:59:28;14.57;;;6.95;;
69989;SDS011;57331;52.054;5.294;2022-11-15T09:02:14;25.92;;;9.63;;
69989;SDS011;57331;52.054;5.294;2022-11-15T09:05:00;14.93;;;7.35;;
69989;SDS011;57331;52.054;5.294;2022-11-15T09:07:46;19.53;;;8.50;;
69989;SDS011;57331;52.054;5.294;2022-11-15T09:10:32;14.73;;;7.55;;
69989;SDS011;57331;52.054;5.294;2022-11-15T09:13:18;17.23;;;7.72;;
69989;SDS011;57331;52.054;5.294;2022-11-15T09:16:04;20.40;;;8.75;;
69989;SDS011;57331;52.054;5.294;2022-11-15T09:18:50;23.08;;;7.45;;
69989;SDS011;57331;52.054;5.294;2022-11-15T09:21:36;21.33;;;8.97;;
69989;SDS011;57331;52.054;5.294;2022-11-15T09:24:22;16.92;;;7.35;;
69989;SDS011;57331;52.054;5.294;2022-11-15T09:27:08;17.02;;;8.13;;
69989;SDS011;57331;52.054;5.294;2022-11-15T09:29:54;19.40;;;8.13;;
69989;SDS011;57331;52.054;5.294;2022-11-15T09:32:40;12.25;;;5.97;;
69989;SDS011;57331;52.054;5.294;2022-11-15T09:35:26;13.43;;;6.80;;
69989;SDS011;57331;52.054;5.294;2022-11-15T09:38:11;13.93;;;7.32;;
69989;SDS011;57331;52.054;5.294;2022-11-15T09:47:34;13.70;;;6.18;;
69989;SDS011;57331;52.054;5.294;2022-11-15T09:50:57;12.80;;;6.00;;
69989;SDS011;57331;52.054;5.294;2022-11-15T09:53:33;8.90;;;3.95;;
69989;SDS011;57331;52.054;5.294;2022-11-15T09:56:27;13.80;;;5.88;;
69989;SDS011;57331;52.054;5.294;2022-11-15T10:01:39;9.82;;;4.30;;
69989;SDS011;57331;52.054;5.294;2022-11-15T10:04:10;8.90;;;4.10;;
69989;SDS011;57331;52.054;5.294;2022-11-15T10:06:41;9.05;;;4.55;;
69989;SDS011;57331;52.054;5.294;2022-11-15T10:12:25;13.07;;;4.15;;
69989;SDS011;57331;52.054;5.294;2022-11-15T10:14:56;8.43;;;4.70;;
69989;SDS011;57331;52.054;5.294;2022-11-15T10:20:27;9.20;;;4.68;;
69989;SDS011;57331;52.054;5.294;2022-11-15T10:23:05;8.52;;;3.90;;
69989;SDS011;57331;52.054;5.294;2022-11-15T10:25:36;8.77;;;3.83;;
69989;SDS011;57331;52.054;5.294;2022-11-15T10:30:56;10.03;;;3.73;;
69989;SDS011;57331;52.054;5.294;2022-11-15T10:33:34;9.30;;;3.95;;
69989;SDS011;57331;52.054;5.294;2022-11-15T10:41:21;8.60;;;3.65;;
69989;SDS011;57331;52.054;5.294;2022-11-15T10:46:48;6.32;;;2.97;;
69989;SDS011;57331;52.054;5.294;2022-11-15T10:49:31;7.10;;;2.85;;
69989;SDS011;57331;52.054;5.294;2022-11-15T10:52:20;8.60;;;3.28;;
69989;SDS011;57331;52.054;5.294;2022-11-15T10:54:51;6.22;;;2.83;;
69989;SDS011;57331;52.054;5.294;2022-11-15T10:57:31;6.97;;;2.80;;
69989;SDS011;57331;52.054;5.294;2022-11-15T11:05:29;5.22;;;2.53;;
69989;SDS011;57331;52.054;5.294;2022-11-15T11:13:30;8.35;;;2.75;;
69989;SDS011;57331;52.054;5.294;2022-11-15T11:16:20;7.07;;;2.08;;
69989;SDS011;57331;52.054;5.294;2022-11-15T11:34:50;9.98;;;2.50;;
69989;SDS011;57331;52.054;5.294;2022-11-15T11:37:32;6.03;;;2.10;;
69989;SDS011;57331;52.054;5.294;2022-11-15T11:51:15;7.00;;;2.10;;
69989;SDS011;57331;52.054;5.294;2022-11-15T11:56:39;5.95;;;2.20;;
69989;SDS011;57331;52.054;5.294;2022-11-15T12:02:20;7.18;;;2.45;;
69989;SDS011;57331;52.054;5.294;2022-11-15T12:04:57;4.83;;;2.10;;
69989;SDS011;57331;52.054;5.294;2022-11-15T12:07:31;5.95;;;2.10;;
69989;SDS011;57331;52.054;5.294;2022-11-15T12:15:30;6.68;;;2.15;;
69989;SDS011;57331;52.054;5.294;2022-11-15T12:18:02;7.03;;;2.80;;
69989;SDS011;57331;52.054;5.294;2022-11-15T12:20:32;6.40;;;2.08;;
69989;SDS011;57331;52.054;5.294;2022-11-15T12:23:23;5.15;;;2.10;;
69989;SDS011;57331;52.054;5.294;2022-11-15T12:26:08;6.85;;;2.10;;
69989;SDS011;57331;52.054;5.294;2022-11-15T12:28:59;6.35;;;2.15;;
69989;SDS011;57331;52.054;5.294;2022-11-15T12:34:02;10.57;;;2.17;;
69989;SDS011;57331;52.054;5.294;2022-11-15T12:36:37;8.93;;;2.10;;
69989;SDS011;57331;52.054;5.294;2022-11-15T12:39:10;7.50;;;2.50;;
69989;SDS011;57331;52.054;5.294;2022-11-15T12:41:39;4.75;;;1.83;;
69989;SDS011;57331;52.054;5.294;2022-11-15T12:44:12;7.13;;;2.20;;
69989;SDS011;57331;52.054;5.294;2022-11-15T12:47:04;6.53;;;1.90;;
69989;SDS011;57331;52.054;5.294;2022-11-15T12:49:49;4.25;;;1.85;;
69989;SDS011;57331;52.054;5.294;2022-11-15T12:52:17;6.00;;;2.28;;
69989;SDS011;57331;52.054;5.294;2022-11-15T12:54:52;8.05;;;1.92;;
69989;SDS011;57331;52.054;5.294;2022-11-15T12:59:57;7.63;;;2.17;;
69989;SDS011;57331;52.054;5.294;2022-11-15T13:02:37;5.05;;;2.05;;
69989;SDS011;57331;52.054;5.294;2022-11-15T13:17:47;8.00;;;2.20;;
69989;SDS011;57331;52.054;5.294;2022-11-15T13:20:23;8.65;;;2.10;;
69989;SDS011;57331;52.054;5.294;2022-11-15T13:25:46;5.95;;;2.28;;
69989;SDS011;57331;52.054;5.294;2022-11-15T13:28:29;7.75;;;1.90;;
69989;SDS011;57331;52.054;5.294;2022-11-15T13:33:59;6.45;;;1.85;;
69989;SDS011;57331;52.054;5.294;2022-11-15T13:36:32;7.47;;;1.83;;
69989;SDS011;57331;52.054;5.294;2022-11-15T13:39:05;9.45;;;2.30;;
69989;SDS011;57331;52.054;5.294;2022-11-15T13:41:47;5.80;;;1.90;;
69989;SDS011;57331;52.054;5.294;2022-11-15T13:44:34;5.63;;;2.17;;
69989;SDS011;57331;52.054;5.294;2022-11-15T13:47:14;7.03;;;1.90;;
69989;SDS011;57331;52.054;5.294;2022-11-15T13:49:46;7.90;;;2.33;;
69989;SDS011;57331;52.054;5.294;2022-11-15T13:52:14;5.97;;;1.92;;
69989;SDS011;57331;52.054;5.294;2022-11-15T13:54:47;7.38;;;2.40;;
69989;SDS011;57331;52.054;5.294;2022-11-15T13:57:27;6.55;;;2.00;;
69989;SDS011;57331;52.054;5.294;2022-11-15T14:03:33;11.77;;;2.00;;
69989;SDS011;57331;52.054;5.294;2022-11-15T14:09:28;6.93;;;2.20;;
69989;SDS011;57331;52.054;5.294;2022-11-15T14:11:37;6.05;;;2.28;;
69989;SDS011;57331;52.054;5.294;2022-11-15T14:14:11;6.95;;;2.17;;
69989;SDS011;57331;52.054;5.294;2022-11-15T14:16:44;9.87;;;2.60;;
69989;SDS011;57331;52.054;5.294;2022-11-15T14:19:33;6.43;;;2.25;;
69989;SDS011;57331;52.054;5.294;2022-11-15T14:22:07;5.68;;;2.72;;
69989;SDS011;57331;52.054;5.294;2022-11-15T14:24:44;6.80;;;2.30;;
69989;SDS011;57331;52.054;5.294;2022-11-15T14:27:20;6.15;;;2.45;;
69989;SDS011;57331;52.054;5.294;2022-11-15T14:29:47;8.23;;;2.60;;
69989;SDS011;57331;52.054;5.294;2022-11-15T14:32:16;6.03;;;2.05;;
69989;SDS011;57331;52.054;5.294;2022-11-15T14:34:45;8.13;;;2.42;;
69989;SDS011;57331;52.054;5.294;2022-11-15T14:37:21;10.52;;;2.10;;
69989;SDS011;57331;52.054;5.294;2022-11-15T14:39:49;5.75;;;1.90;;
69989;SDS011;57331;52.054;5.294;2022-11-15T14:42:17;8.60;;;1.97;;
69989;SDS011;57331;52.054;5.294;2022-11-15T14:44:44;9.25;;;1.80;;
69989;SDS011;57331;52.054;5.294;2022-11-15T14:47:12;6.07;;;2.15;;
69989;SDS011;57331;52.054;5.294;2022-11-15T14:49:39;8.18;;;1.95;;
69989;SDS011;57331;52.054;5.294;2022-11-15T14:54:58;6.17;;;2.10;;
69989;SDS011;57331;52.054;5.294;2022-11-15T14:57:28;6.90;;;2.05;;
69989;SDS011;57331;52.054;5.294;2022-11-15T14:59:55;4.03;;;1.98;;
69989;SDS011;57331;52.054;5.294;2022-11-15T15:02:37;7.20;;;2.45;;
69989;SDS011;57331;52.054;5.294;2022-11-15T15:07:47;7.53;;;1.80;;
69989;SDS011;57331;52.054;5.294;2022-11-15T15:10:15;5.72;;;2.40;;
69989;SDS011;57331;52.054;5.294;2022-11-15T15:13:03;5.63;;;2.10;;
69989;SDS011;57331;52.054;5.294;2022-11-15T15:15:34;5.78;;;1.40;;
69989;SDS011;57331;52.054;5.294;2022-11-15T15:18:03;5.50;;;1.88;;
69989;SDS011;57331;52.054;5.294;2022-11-15T15:20:32;6.17;;;1.50;;
69989;SDS011;57331;52.054;5.294;2022-11-15T15:22:59;5.55;;;1.77;;
69989;SDS011;57331;52.054;5.294;2022-11-15T15:25:33;9.27;;;1.90;;
69989;SDS011;57331;52.054;5.294;2022-11-15T15:28:01;4.60;;;1.60;;
69989;SDS011;57331;52.054;5.294;2022-11-15T15:30:29;7.38;;;1.50;;
69989;SDS011;57331;52.054;5.294;2022-11-15T15:32:57;3.90;;;1.60;;
69989;SDS011;57331;52.054;5.294;2022-11-15T15:35:24;4.65;;;1.67;;
69989;SDS011;57331;52.054;5.294;2022-11-15T15:37:57;8.73;;;2.60;;
69989;SDS011;57331;52.054;5.294;2022-11-15T15:40:25;4.43;;;1.58;;
69989;SDS011;57331;52.054;5.294;2022-11-15T15:42:54;5.20;;;1.40;;
69989;SDS011;57331;52.054;5.294;2022-11-15T15:45:21;6.63;;;1.60;;
69989;SDS011;57331;52.054;5.294;2022-11-15T15:47:49;8.73;;;1.80;;
69989;SDS011;57331;52.054;5.294;2022-11-15T15:52:58;6.22;;;2.03;;
69989;SDS011;57331;52.054;5.294;2022-11-15T15:55:27;5.70;;;1.70;;
69989;SDS011;57331;52.054;5.294;2022-11-15T15:57:54;5.50;;;1.50;;
69989;SDS011;57331;52.054;5.294;2022-11-15T16:00:22;10.35;;;2.60;;
69989;SDS011;57331;52.054;5.294;2022-11-15T16:02:51;17.20;;;6.18;;
69989;SDS011;57331;52.054;5.294;2022-11-15T16:05:19;8.90;;;2.55;;
69989;SDS011;57331;52.054;5.294;2022-11-15T16:07:46;5.35;;;1.67;;
69989;SDS011;57331;52.054;5.294;2022-11-15T16:10:16;8.03;;;2.40;;
69989;SDS011;57331;52.054;5.294;2022-11-15T16:12:46;5.13;;;1.92;;
69989;SDS011;57331;52.054;5.294;2022-11-15T16:15:14;5.95;;;1.52;;
69989;SDS011;57331;52.054;5.294;2022-11-15T16:17:43;4.07;;;1.45;;
69989;SDS011;57331;52.054;5.294;2022-11-15T16:20:20;10.10;;;1.95;;
69989;SDS011;57331;52.054;5.294;2022-11-15T16:22:54;5.90;;;1.77;;
69989;SDS011;57331;52.054;5.294;2022-11-15T16:25:21;8.20;;;2.00;;
69989;SDS011;57331;52.054;5.294;2022-11-15T16:27:49;8.90;;;2.72;;
69989;SDS011;57331;52.054;5.294;2022-11-15T16:30:17;6.15;;;2.33;;
69989;SDS011;57331;52.054;5.294;2022-11-15T16:32:48;5.85;;;1.85;;
69989;SDS011;57331;52.054;5.294;2022-11-15T16:35:16;7.20;;;2.67;;
69989;SDS011;57331;52.054;5.294;2022-11-15T16:37:43;6.63;;;1.52;;
69989;SDS011;57331;52.054;5.294;2022-11-15T16:40:26;5.93;;;1.80;;
69989;SDS011;57331;52.054;5.294;2022-11-15T16:42:57;7.72;;;2.33;;
69989;SDS011;57331;52.054;5.294;2022-11-15T16:45:26;6.88;;;1.80;;
69989;SDS011;57331;52.054;5.294;2022-11-15T16:47:54;5.03;;;1.47;;
69989;SDS011;57331;52.054;5.294;2022-11-15T16:50:23;5.40;;;1.70;;
69989;SDS011;57331;52.054;5.294;2022-11-15T16:52:52;3.50;;;1.80;;
69989;SDS011;57331;52.054;5.294;2022-11-15T16:55:22;8.43;;;2.03;;
69989;SDS011;57331;52.054;5.294;2022-11-15T16:57:50;7.28;;;1.80;;
69989;SDS011;57331;52.054;5.294;2022-11-15T17:00:18;8.60;;;2.10;;
69989;SDS011;57331;52.054;5.294;2022-11-15T17:02:46;5.95;;;1.80;;
69989;SDS011;57331;52.054;5.294;2022-11-15T17:05:15;6.43;;;2.10;;
69989;SDS011;57331;52.054;5.294;2022-11-15T17:07:46;6.75;;;2.00;;
69989;SDS011;57331;52.054;5.294;2022-11-15T17:10:15;6.68;;;2.42;;
69989;SDS011;57331;52.054;5.294;2022-11-15T17:12:43;7.83;;;2.50;;
69989;SDS011;57331;52.054;5.294;2022-11-15T17:15:11;5.25;;;1.77;;
69989;SDS011;57331;52.054;5.294;2022-11-15T17:17:38;8.20;;;2.10;;
69989;SDS011;57331;52.054;5.294;2022-11-15T17:20:06;8.65;;;1.92;;
69989;SDS011;57331;52.054;5.294;2022-11-15T17:22:39;5.85;;;1.95;;
69989;SDS011;57331;52.054;5.294;2022-11-15T17:25:07;6.73;;;2.00;;
69989;SDS011;57331;52.054;5.294;2022-11-15T17:27:34;7.13;;;2.30;;
69989;SDS011;57331;52.054;5.294;2022-11-15T17:30:01;7.43;;;2.30;;
69989;SDS011;57331;52.054;5.294;2022-11-15T17:32:28;5.95;;;2.15;;
69989;SDS011;57331;52.054;5.294;2022-11-15T17:34:55;6.03;;;2.42;;
69989;SDS011;57331;52.054;5.294;2022-11-15T17:37:22;6.37;;;2.20;;
69989;SDS011;57331;52.054;5.294;2022-11-15T17:39:50;7.80;;;2.35;;
69989;SDS011;57331;52.054;5.294;2022-11-15T17:42:17;7.30;;;2.40;;
69989;SDS011;57331;52.054;5.294;2022-11-15T17:44:44;7.82;;;2.28;;
69989;SDS011;57331;52.054;5.294;2022-11-15T17:47:11;9.95;;;3.28;;
69989;SDS011;57331;52.054;5.294;2022-11-15T17:49:39;6.10;;;2.20;;
69989;SDS011;57331;52.054;5.294;2022-11-15T17:52:06;8.20;;;3.25;;
69989;SDS011;57331;52.054;5.294;2022-11-15T17:54:33;7.13;;;2.65;;
69989;SDS011;57331;52.054;5.294;2022-11-15T17:57:00;11.23;;;3.78;;
69989;SDS011;57331;52.054;5.294;2022-11-15T17:59:28;12.45;;;3.97;;
69989;SDS011;57331;52.054;5.294;2022-11-15T18:01:55;11.83;;;3.93;;
69989;SDS011;57331;52.054;5.294;2022-11-15T18:04:22;9.32;;;3.17;;
69989;SDS011;57331;52.054;5.294;2022-11-15T18:06:53;10.82;;;2.90;;
69989;SDS011;57331;52.054;5.294;2022-11-15T18:09:21;7.40;;;2.92;;
69989;SDS011;57331;52.054;5.294;2022-11-15T18:11:51;7.97;;;3.67;;
69989;SDS011;57331;52.054;5.294;2022-11-15T18:14:19;8.50;;;3.17;;
69989;SDS011;57331;52.054;5.294;2022-11-15T18:16:47;7.15;;;2.90;;
69989;SDS011;57331;52.054;5.294;2022-11-15T18:19:14;13.10;;;3.78;;
69989;SDS011;57331;52.054;5.294;2022-11-15T18:21:42;8.13;;;3.20;;
69989;SDS011;57331;52.054;5.294;2022-11-15T18:24:32;8.20;;;3.58;;
69989;SDS011;57331;52.054;5.294;2022-11-15T18:27:01;7.10;;;3.47;;
69989;SDS011;57331;52.054;5.294;2022-11-15T18:29:29;10.55;;;3.10;;